sensor_id;sensor_type;location;lat;lon;timestamp;temperature;humidity
6865;DHT22;3471;49.678;8.388;2023-01-24T00:02:19;4.20;99.90
6865;DHT22;3471;49.678;8.388;2023-01-24T00:04:45;4.20;99.90
6865;DHT22;3471;49.678;8.388;2023-01-24T00:07:11;4.20;99.90
6865;DHT22;3471;49.678;8.388;2023-01-24T00:09:37;4.20;99.90
6865;DHT22;3471;49.678;8.388;2023-01-24T00:12:02;4.20;99.90
6865;DHT22;3471;49.678;8.388;2023-01-24T00:14:28;4.20;99.90
6865;DHT22;3471;49.678;8.388;2023-01-24T00:16:53;4.20;99.90
6865;DHT22;3471;49.678;8.388;2023-01-24T00:19:19;4.20;99.90
6865;DHT22;3471;49.678;8.388;2023-01-24T00:21:45;4.20;99.90
6865;DHT22;3471;49.678;8.388;2023-01-24T00:24:10;4.20;99.90
6865;DHT22;3471;49.678;8.388;2023-01-24T00:26:36;4.20;99.90
6865;DHT22;3471;49.678;8.388;2023-01-24T00:29:02;4.20;99.90
6865;DHT22;3471;49.678;8.388;2023-01-24T00:31:27;4.20;99.90
6865;DHT22;3471;49.678;8.388;2023-01-24T00:33:53;4.20;99.90
6865;DHT22;3471;49.678;8.388;2023-01-24T00:36:19;4.20;99.90
6865;DHT22;3471;49.678;8.388;2023-01-24T00:38:44;4.20;99.90
6865;DHT22;3471;49.678;8.388;2023-01-24T00:41:10;4.20;99.90
6865;DHT22;3471;49.678;8.388;2023-01-24T00:43:35;4.20;99.90
6865;DHT22;3471;49.678;8.388;2023-01-24T00:46:04;4.20;99.90
6865;DHT22;3471;49.678;8.388;2023-01-24T00:48:29;4.20;99.90
6865;DHT22;3471;49.678;8.388;2023-01-24T00:50:55;4.20;99.90
6865;DHT22;3471;49.678;8.388;2023-01-24T00:53:20;4.20;99.90
6865;DHT22;3471;49.678;8.388;2023-01-24T00:55:47;4.20;99.90
6865;DHT22;3471;49.678;8.388;2023-01-24T00:58:14;4.20;99.90
6865;DHT22;3471;49.678;8.388;2023-01-24T01:00:40;4.10;99.90
6865;DHT22;3471;49.678;8.388;2023-01-24T01:03:14;4.10;99.90
6865;DHT22;3471;49.678;8.388;2023-01-24T01:05:40;4.10;99.90
6865;DHT22;3471;49.678;8.388;2023-01-24T01:08:06;4.10;99.90
6865;DHT22;3471;49.678;8.388;2023-01-24T01:10:31;4.20;99.90
6865;DHT22;3471;49.678;8.388;2023-01-24T01:12:57;4.10;99.90
6865;DHT22;3471;49.678;8.388;2023-01-24T01:15:23;4.10;99.90
6865;DHT22;3471;49.678;8.388;2023-01-24T01:17:48;4.10;99.90
6865;DHT22;3471;49.678;8.388;2023-01-24T01:20:14;4.10;99.90
6865;DHT22;3471;49.678;8.388;2023-01-24T01:22:39;4.20;99.90
6865;DHT22;3471;49.678;8.388;2023-01-24T01:25:05;4.10;99.90
6865;DHT22;3471;49.678;8.388;2023-01-24T01:27:31;4.10;99.90
6865;DHT22;3471;49.678;8.388;2023-01-24T01:29:56;4.10;99.90
6865;DHT22;3471;49.678;8.388;2023-01-24T01:32:22;4.00;99.90
6865;DHT22;3471;49.678;8.388;2023-01-24T01:34:47;4.00;99.90
6865;DHT22;3471;49.678;8.388;2023-01-24T01:37:13;4.10;99.90
6865;DHT22;3471;49.678;8.388;2023-01-24T01:39:39;4.00;99.90
6865;DHT22;3471;49.678;8.388;2023-01-24T01:42:04;4.10;99.90
6865;DHT22;3471;49.678;8.388;2023-01-24T01:44:31;4.10;99.90
6865;DHT22;3471;49.678;8.388;2023-01-24T01:47:25;4.10;99.90
6865;DHT22;3471;49.678;8.388;2023-01-24T01:50:18;4.10;99.90
6865;DHT22;3471;49.678;8.388;2023-01-24T01:52:47;4.10;99.90
6865;DHT22;3471;49.678;8.388;2023-01-24T01:55:15;4.10;99.90
6865;DHT22;3471;49.678;8.388;2023-01-24T01:57:42;4.10;99.90
6865;DHT22;3471;49.678;8.388;2023-01-24T02:00:19;4.10;99.90
6865;DHT22;3471;49.678;8.388;2023-01-24T02:02:48;4.10;99.90
6865;DHT22;3471;49.678;8.388;2023-01-24T02:05:17;4.20;99.90
6865;DHT22;3471;49.678;8.388;2023-01-24T02:07:50;4.10;99.90
6865;DHT22;3471;49.678;8.388;2023-01-24T02:10:22;4.10;99.90
6865;DHT22;3471;49.678;8.388;2023-01-24T02:12:49;4.10;99.90
6865;DHT22;3471;49.678;8.388;2023-01-24T02:15:20;4.10;99.90
6865;DHT22;3471;49.678;8.388;2023-01-24T02:18:09;4.10;99.90
6865;DHT22;3471;49.678;8.388;2023-01-24T02:20:43;4.10;99.90
6865;DHT22;3471;49.678;8.388;2023-01-24T02:26:19;4.10;99.90
6865;DHT22;3471;49.678;8.388;2023-01-24T02:28:50;4.10;99.90
6865;DHT22;3471;49.678;8.388;2023-01-24T02:31:17;4.10;99.90
6865;DHT22;3471;49.678;8.388;2023-01-24T02:33:42;4.00;99.90
6865;DHT22;3471;49.678;8.388;2023-01-24T02:39:06;4.00;99.90
6865;DHT22;3471;49.678;8.388;2023-01-24T02:41:53;4.00;99.90
6865;DHT22;3471;49.678;8.388;2023-01-24T02:44:31;4.00;99.90
6865;DHT22;3471;49.678;8.388;2023-01-24T02:46:59;4.00;99.90
6865;DHT22;3471;49.678;8.388;2023-01-24T02:49:25;4.00;99.90
6865;DHT22;3471;49.678;8.388;2023-01-24T02:51:50;4.00;99.90
6865;DHT22;3471;49.678;8.388;2023-01-24T02:54:34;4.00;99.90
6865;DHT22;3471;49.678;8.388;2023-01-24T02:57:00;4.00;99.90
6865;DHT22;3471;49.678;8.388;2023-01-24T02:59:44;4.00;99.90
6865;DHT22;3471;49.678;8.388;2023-01-24T03:02:10;4.00;99.90
6865;DHT22;3471;49.678;8.388;2023-01-24T03:04:35;4.00;99.90
6865;DHT22;3471;49.678;8.388;2023-01-24T03:07:01;4.00;99.90
6865;DHT22;3471;49.678;8.388;2023-01-24T03:09:26;4.00;99.90
6865;DHT22;3471;49.678;8.388;2023-01-24T03:12:06;4.00;99.90
6865;DHT22;3471;49.678;8.388;2023-01-24T03:14:50;4.00;99.90
6865;DHT22;3471;49.678;8.388;2023-01-24T03:17:35;4.00;99.90
6865;DHT22;3471;49.678;8.388;2023-01-24T03:20:19;4.00;99.90
6865;DHT22;3471;49.678;8.388;2023-01-24T03:23:04;4.00;99.90
6865;DHT22;3471;49.678;8.388;2023-01-24T03:25:52;4.00;99.90
6865;DHT22;3471;49.678;8.388;2023-01-24T03:28:36;4.00;99.90
6865;DHT22;3471;49.678;8.388;2023-01-24T03:31:20;4.00;99.90
6865;DHT22;3471;49.678;8.388;2023-01-24T03:34:04;4.00;99.90
6865;DHT22;3471;49.678;8.388;2023-01-24T03:36:48;4.00;99.90
6865;DHT22;3471;49.678;8.388;2023-01-24T03:39:14;4.00;99.90
6865;DHT22;3471;49.678;8.388;2023-01-24T03:41:58;4.00;99.90
6865;DHT22;3471;49.678;8.388;2023-01-24T03:44:23;4.00;99.90
6865;DHT22;3471;49.678;8.388;2023-01-24T03:46:49;4.00;99.90
6865;DHT22;3471;49.678;8.388;2023-01-24T03:49:15;4.00;99.90
6865;DHT22;3471;49.678;8.388;2023-01-24T03:51:42;4.00;99.90
6865;DHT22;3471;49.678;8.388;2023-01-24T03:54:26;4.00;99.90
6865;DHT22;3471;49.678;8.388;2023-01-24T03:56:52;4.10;99.90
6865;DHT22;3471;49.678;8.388;2023-01-24T03:59:17;4.00;99.90
6865;DHT22;3471;49.678;8.388;2023-01-24T04:01:43;4.00;99.90
6865;DHT22;3471;49.678;8.388;2023-01-24T04:04:08;4.10;99.90
6865;DHT22;3471;49.678;8.388;2023-01-24T04:06:34;4.10;99.90
6865;DHT22;3471;49.678;8.388;2023-01-24T04:08:59;4.10;99.90
6865;DHT22;3471;49.678;8.388;2023-01-24T04:11:25;4.10;99.90
6865;DHT22;3471;49.678;8.388;2023-01-24T04:13:51;4.10;99.90
6865;DHT22;3471;49.678;8.388;2023-01-24T04:16:17;4.10;99.90
6865;DHT22;3471;49.678;8.388;2023-01-24T04:18:43;4.10;99.90
6865;DHT22;3471;49.678;8.388;2023-01-24T04:21:09;4.10;99.90
6865;DHT22;3471;49.678;8.388;2023-01-24T04:23:36;4.10;99.90
6865;DHT22;3471;49.678;8.388;2023-01-24T04:26:02;4.10;99.90
6865;DHT22;3471;49.678;8.388;2023-01-24T04:28:28;4.10;99.90
6865;DHT22;3471;49.678;8.388;2023-01-24T04:30:59;4.10;99.90
6865;DHT22;3471;49.678;8.388;2023-01-24T04:33:25;4.10;99.90
6865;DHT22;3471;49.678;8.388;2023-01-24T04:35:51;4.10;99.90
6865;DHT22;3471;49.678;8.388;2023-01-24T04:38:20;4.00;99.90
6865;DHT22;3471;49.678;8.388;2023-01-24T04:40:46;4.00;99.90
6865;DHT22;3471;49.678;8.388;2023-01-24T04:43:11;4.00;99.90
6865;DHT22;3471;49.678;8.388;2023-01-24T04:45:37;4.00;99.90
6865;DHT22;3471;49.678;8.388;2023-01-24T04:48:03;4.10;99.90
6865;DHT22;3471;49.678;8.388;2023-01-24T04:50:28;4.10;99.90
6865;DHT22;3471;49.678;8.388;2023-01-24T04:52:54;4.10;99.90
6865;DHT22;3471;49.678;8.388;2023-01-24T04:55:19;4.10;99.90
6865;DHT22;3471;49.678;8.388;2023-01-24T04:57:45;4.10;99.90
6865;DHT22;3471;49.678;8.388;2023-01-24T05:00:11;4.10;99.90
6865;DHT22;3471;49.678;8.388;2023-01-24T05:02:37;4.10;99.90
6865;DHT22;3471;49.678;8.388;2023-01-24T05:05:04;4.10;99.90
6865;DHT22;3471;49.678;8.388;2023-01-24T05:07:30;4.10;99.90
6865;DHT22;3471;49.678;8.388;2023-01-24T05:09:55;4.10;99.90
6865;DHT22;3471;49.678;8.388;2023-01-24T05:12:21;4.10;99.90
6865;DHT22;3471;49.678;8.388;2023-01-24T05:14:46;4.10;99.90
6865;DHT22;3471;49.678;8.388;2023-01-24T05:17:12;4.10;99.90
6865;DHT22;3471;49.678;8.388;2023-01-24T05:19:37;4.10;99.90
6865;DHT22;3471;49.678;8.388;2023-01-24T05:22:03;4.00;99.90
6865;DHT22;3471;49.678;8.388;2023-01-24T05:24:29;4.10;99.90
6865;DHT22;3471;49.678;8.388;2023-01-24T05:26:54;4.00;99.90
6865;DHT22;3471;49.678;8.388;2023-01-24T05:29:20;4.00;99.90
6865;DHT22;3471;49.678;8.388;2023-01-24T05:31:45;4.00;99.90
6865;DHT22;3471;49.678;8.388;2023-01-24T05:34:11;4.00;99.90
6865;DHT22;3471;49.678;8.388;2023-01-24T05:36:37;4.00;99.90
6865;DHT22;3471;49.678;8.388;2023-01-24T05:39:02;4.10;99.90
6865;DHT22;3471;49.678;8.388;2023-01-24T05:41:28;4.00;99.90
6865;DHT22;3471;49.678;8.388;2023-01-24T05:43:54;4.00;99.90
6865;DHT22;3471;49.678;8.388;2023-01-24T05:46:21;4.00;99.90
6865;DHT22;3471;49.678;8.388;2023-01-24T05:48:48;4.00;99.90
6865;DHT22;3471;49.678;8.388;2023-01-24T05:51:16;4.00;99.90
6865;DHT22;3471;49.678;8.388;2023-01-24T05:53:43;4.00;99.90
6865;DHT22;3471;49.678;8.388;2023-01-24T05:56:17;4.00;99.90
6865;DHT22;3471;49.678;8.388;2023-01-24T05:58:44;4.00;99.90
6865;DHT22;3471;49.678;8.388;2023-01-24T06:01:13;3.90;99.90
6865;DHT22;3471;49.678;8.388;2023-01-24T06:03:40;4.00;99.90
6865;DHT22;3471;49.678;8.388;2023-01-24T06:06:07;4.00;99.90
6865;DHT22;3471;49.678;8.388;2023-01-24T06:08:34;4.00;99.90
6865;DHT22;3471;49.678;8.388;2023-01-24T06:11:15;4.00;99.90
6865;DHT22;3471;49.678;8.388;2023-01-24T06:13:41;4.00;99.90
6865;DHT22;3471;49.678;8.388;2023-01-24T06:16:16;4.00;99.90
6865;DHT22;3471;49.678;8.388;2023-01-24T06:18:43;4.00;99.90
6865;DHT22;3471;49.678;8.388;2023-01-24T06:21:21;4.00;99.90
6865;DHT22;3471;49.678;8.388;2023-01-24T06:23:49;3.90;99.90
6865;DHT22;3471;49.678;8.388;2023-01-24T06:26:15;3.90;99.90
6865;DHT22;3471;49.678;8.388;2023-01-24T06:28:41;3.90;99.90
6865;DHT22;3471;49.678;8.388;2023-01-24T06:34:18;3.90;99.90
6865;DHT22;3471;49.678;8.388;2023-01-24T06:39:30;3.90;99.90
6865;DHT22;3471;49.678;8.388;2023-01-24T06:41:56;3.90;99.90
6865;DHT22;3471;49.678;8.388;2023-01-24T06:44:22;3.90;99.90
6865;DHT22;3471;49.678;8.388;2023-01-24T06:46:47;3.90;99.90
6865;DHT22;3471;49.678;8.388;2023-01-24T06:49:13;3.80;99.90
6865;DHT22;3471;49.678;8.388;2023-01-24T06:51:39;3.80;99.90
6865;DHT22;3471;49.678;8.388;2023-01-24T06:54:05;3.80;99.90
6865;DHT22;3471;49.678;8.388;2023-01-24T06:56:31;3.90;99.90
6865;DHT22;3471;49.678;8.388;2023-01-24T06:58:56;3.90;99.90
6865;DHT22;3471;49.678;8.388;2023-01-24T07:01:24;3.90;99.90
6865;DHT22;3471;49.678;8.388;2023-01-24T07:03:50;3.90;99.90
6865;DHT22;3471;49.678;8.388;2023-01-24T07:06:15;3.90;99.90
6865;DHT22;3471;49.678;8.388;2023-01-24T07:08:41;4.00;99.90
6865;DHT22;3471;49.678;8.388;2023-01-24T07:11:06;4.00;99.90
6865;DHT22;3471;49.678;8.388;2023-01-24T07:13:32;4.00;99.90
6865;DHT22;3471;49.678;8.388;2023-01-24T07:16:01;4.00;99.90
6865;DHT22;3471;49.678;8.388;2023-01-24T07:18:27;4.00;99.90
6865;DHT22;3471;49.678;8.388;2023-01-24T07:20:53;4.00;99.90
6865;DHT22;3471;49.678;8.388;2023-01-24T07:23:26;4.00;99.90
6865;DHT22;3471;49.678;8.388;2023-01-24T07:25:55;4.00;99.90
6865;DHT22;3471;49.678;8.388;2023-01-24T07:28:21;4.00;99.90
6865;DHT22;3471;49.678;8.388;2023-01-24T07:30:48;4.00;99.90
6865;DHT22;3471;49.678;8.388;2023-01-24T07:33:14;3.90;99.90
6865;DHT22;3471;49.678;8.388;2023-01-24T07:35:41;3.90;99.90
6865;DHT22;3471;49.678;8.388;2023-01-24T07:38:06;4.00;99.90
6865;DHT22;3471;49.678;8.388;2023-01-24T07:40:32;4.00;99.90
6865;DHT22;3471;49.678;8.388;2023-01-24T07:43:01;4.00;99.90
6865;DHT22;3471;49.678;8.388;2023-01-24T07:45:28;4.00;99.90
6865;DHT22;3471;49.678;8.388;2023-01-24T07:47:57;4.00;99.90
6865;DHT22;3471;49.678;8.388;2023-01-24T07:50:24;4.00;99.90
6865;DHT22;3471;49.678;8.388;2023-01-24T07:52:51;4.00;99.90
6865;DHT22;3471;49.678;8.388;2023-01-24T07:55:17;4.00;99.90
6865;DHT22;3471;49.678;8.388;2023-01-24T07:57:43;4.00;99.90
6865;DHT22;3471;49.678;8.388;2023-01-24T08:00:09;4.00;99.90
6865;DHT22;3471;49.678;8.388;2023-01-24T08:02:34;4.00;99.90
6865;DHT22;3471;49.678;8.388;2023-01-24T08:05:00;4.00;99.90
6865;DHT22;3471;49.678;8.388;2023-01-24T08:07:25;4.00;99.90
6865;DHT22;3471;49.678;8.388;2023-01-24T08:09:52;4.00;99.90
6865;DHT22;3471;49.678;8.388;2023-01-24T08:12:17;4.00;99.90
6865;DHT22;3471;49.678;8.388;2023-01-24T08:14:43;4.00;99.90
6865;DHT22;3471;49.678;8.388;2023-01-24T08:17:11;4.00;99.90
6865;DHT22;3471;49.678;8.388;2023-01-24T08:19:37;4.00;99.90
6865;DHT22;3471;49.678;8.388;2023-01-24T08:22:03;4.10;99.90
6865;DHT22;3471;49.678;8.388;2023-01-24T08:24:29;4.10;99.90
6865;DHT22;3471;49.678;8.388;2023-01-24T08:26:54;4.10;99.90
6865;DHT22;3471;49.678;8.388;2023-01-24T08:29:20;4.10;99.90
6865;DHT22;3471;49.678;8.388;2023-01-24T08:31:45;4.10;99.90
6865;DHT22;3471;49.678;8.388;2023-01-24T08:34:13;4.10;99.90
6865;DHT22;3471;49.678;8.388;2023-01-24T08:36:39;4.10;99.90
6865;DHT22;3471;49.678;8.388;2023-01-24T08:39:05;4.20;99.90
6865;DHT22;3471;49.678;8.388;2023-01-24T08:41:30;4.20;99.90
6865;DHT22;3471;49.678;8.388;2023-01-24T08:43:56;4.20;99.90
6865;DHT22;3471;49.678;8.388;2023-01-24T08:46:22;4.20;99.90
6865;DHT22;3471;49.678;8.388;2023-01-24T08:48:47;4.20;99.90
6865;DHT22;3471;49.678;8.388;2023-01-24T08:51:13;4.30;99.90
6865;DHT22;3471;49.678;8.388;2023-01-24T08:53:38;4.30;99.90
6865;DHT22;3471;49.678;8.388;2023-01-24T08:56:04;4.30;99.90
6865;DHT22;3471;49.678;8.388;2023-01-24T08:58:32;4.30;99.90
6865;DHT22;3471;49.678;8.388;2023-01-24T09:00:59;4.30;99.90
6865;DHT22;3471;49.678;8.388;2023-01-24T09:03:25;4.30;99.90
6865;DHT22;3471;49.678;8.388;2023-01-24T09:05:56;4.30;99.90
6865;DHT22;3471;49.678;8.388;2023-01-24T09:08:23;4.30;99.90
6865;DHT22;3471;49.678;8.388;2023-01-24T09:10:49;4.40;99.90
6865;DHT22;3471;49.678;8.388;2023-01-24T09:13:14;4.40;99.90
6865;DHT22;3471;49.678;8.388;2023-01-24T09:15:40;4.40;99.90
6865;DHT22;3471;49.678;8.388;2023-01-24T09:18:06;4.40;99.90
6865;DHT22;3471;49.678;8.388;2023-01-24T09:20:32;4.40;99.90
6865;DHT22;3471;49.678;8.388;2023-01-24T09:22:57;4.50;99.90
6865;DHT22;3471;49.678;8.388;2023-01-24T09:25:23;4.50;99.90
6865;DHT22;3471;49.678;8.388;2023-01-24T09:27:53;4.60;99.90
6865;DHT22;3471;49.678;8.388;2023-01-24T09:30:19;4.60;99.90
6865;DHT22;3471;49.678;8.388;2023-01-24T09:32:46;4.60;99.90
6865;DHT22;3471;49.678;8.388;2023-01-24T09:35:11;4.60;99.90
6865;DHT22;3471;49.678;8.388;2023-01-24T09:37:37;4.60;99.90
6865;DHT22;3471;49.678;8.388;2023-01-24T09:40:03;4.60;99.90
6865;DHT22;3471;49.678;8.388;2023-01-24T09:42:40;4.70;99.90
6865;DHT22;3471;49.678;8.388;2023-01-24T09:47:54;4.70;99.90
6865;DHT22;3471;49.678;8.388;2023-01-24T09:50:28;4.70;99.90
6865;DHT22;3471;49.678;8.388;2023-01-24T09:52:58;4.70;99.90
6865;DHT22;3471;49.678;8.388;2023-01-24T09:55:28;4.70;99.90
6865;DHT22;3471;49.678;8.388;2023-01-24T09:58:07;4.70;99.90
6865;DHT22;3471;49.678;8.388;2023-01-24T10:00:44;4.70;99.90
6865;DHT22;3471;49.678;8.388;2023-01-24T10:03:21;4.70;99.90
6865;DHT22;3471;49.678;8.388;2023-01-24T10:05:49;4.70;99.90
6865;DHT22;3471;49.678;8.388;2023-01-24T10:17:28;4.90;99.90
6865;DHT22;3471;49.678;8.388;2023-01-24T10:22:54;4.80;99.90
6865;DHT22;3471;49.678;8.388;2023-01-24T10:25:33;4.90;99.90
6865;DHT22;3471;49.678;8.388;2023-01-24T10:28:01;4.80;99.90
6865;DHT22;3471;49.678;8.388;2023-01-24T10:30:53;4.90;99.90
6865;DHT22;3471;49.678;8.388;2023-01-24T10:33:20;4.90;99.90
6865;DHT22;3471;49.678;8.388;2023-01-24T10:35:59;4.90;99.90
6865;DHT22;3471;49.678;8.388;2023-01-24T10:38:26;4.90;99.90
6865;DHT22;3471;49.678;8.388;2023-01-24T10:41:09;4.90;99.90
6865;DHT22;3471;49.678;8.388;2023-01-24T10:43:38;5.00;99.90
6865;DHT22;3471;49.678;8.388;2023-01-24T10:48:44;5.00;99.90
6865;DHT22;3471;49.678;8.388;2023-01-24T10:51:19;5.00;99.90
6865;DHT22;3471;49.678;8.388;2023-01-24T10:53:46;5.00;99.90
6865;DHT22;3471;49.678;8.388;2023-01-24T10:56:14;5.00;99.90
6865;DHT22;3471;49.678;8.388;2023-01-24T10:59:04;5.00;99.90
6865;DHT22;3471;49.678;8.388;2023-01-24T11:01:53;5.00;99.90
6865;DHT22;3471;49.678;8.388;2023-01-24T11:04:24;5.00;99.90
6865;DHT22;3471;49.678;8.388;2023-01-24T11:06:51;5.00;99.90
6865;DHT22;3471;49.678;8.388;2023-01-24T11:09:19;5.00;99.90
6865;DHT22;3471;49.678;8.388;2023-01-24T11:11:52;5.00;99.90
6865;DHT22;3471;49.678;8.388;2023-01-24T11:14:32;5.10;99.90
6865;DHT22;3471;49.678;8.388;2023-01-24T11:17:00;5.10;99.90
6865;DHT22;3471;49.678;8.388;2023-01-24T11:19:32;5.10;99.90
6865;DHT22;3471;49.678;8.388;2023-01-24T11:22:22;5.10;99.90
6865;DHT22;3471;49.678;8.388;2023-01-24T11:24:49;5.10;99.90
6865;DHT22;3471;49.678;8.388;2023-01-24T11:27:19;5.10;99.90
6865;DHT22;3471;49.678;8.388;2023-01-24T11:30:05;5.10;99.90
6865;DHT22;3471;49.678;8.388;2023-01-24T11:35:08;5.00;99.90
6865;DHT22;3471;49.678;8.388;2023-01-24T11:37:45;5.00;99.90
6865;DHT22;3471;49.678;8.388;2023-01-24T11:54:33;5.10;99.90
6865;DHT22;3471;49.678;8.388;2023-01-24T12:04:54;5.10;99.90
6865;DHT22;3471;49.678;8.388;2023-01-24T12:10:22;5.10;99.90
6865;DHT22;3471;49.678;8.388;2023-01-24T12:21:23;5.10;99.90
6865;DHT22;3471;49.678;8.388;2023-01-24T12:24:21;5.10;99.90
6865;DHT22;3471;49.678;8.388;2023-01-24T12:26:53;5.10;99.90
6865;DHT22;3471;49.678;8.388;2023-01-24T12:29:33;5.10;99.90
6865;DHT22;3471;49.678;8.388;2023-01-24T12:32:24;5.10;99.90
6865;DHT22;3471;49.678;8.388;2023-01-24T12:40:23;5.10;99.90
6865;DHT22;3471;49.678;8.388;2023-01-24T12:42:57;5.10;99.90
6865;DHT22;3471;49.678;8.388;2023-01-24T12:45:31;5.10;99.90
6865;DHT22;3471;49.678;8.388;2023-01-24T12:50:49;5.10;99.90
6865;DHT22;3471;49.678;8.388;2023-01-24T12:53:24;5.10;99.90
6865;DHT22;3471;49.678;8.388;2023-01-24T12:56:27;5.10;99.90
6865;DHT22;3471;49.678;8.388;2023-01-24T12:58:56;5.10;99.90
6865;DHT22;3471;49.678;8.388;2023-01-24T13:01:58;5.20;99.90
6865;DHT22;3471;49.678;8.388;2023-01-24T13:12:58;5.30;99.90
6865;DHT22;3471;49.678;8.388;2023-01-24T13:15:29;5.30;99.90
6865;DHT22;3471;49.678;8.388;2023-01-24T13:23:27;5.30;99.90
6865;DHT22;3471;49.678;8.388;2023-01-24T13:31:50;5.30;99.90
6865;DHT22;3471;49.678;8.388;2023-01-24T13:34:19;5.30;99.90
6865;DHT22;3471;49.678;8.388;2023-01-24T13:36:50;5.20;99.90
6865;DHT22;3471;49.678;8.388;2023-01-24T13:39:37;5.30;99.90
6865;DHT22;3471;49.678;8.388;2023-01-24T13:42:35;5.30;99.90
6865;DHT22;3471;49.678;8.388;2023-01-24T13:48:00;5.20;99.90
6865;DHT22;3471;49.678;8.388;2023-01-24T13:50:27;5.20;99.90
6865;DHT22;3471;49.678;8.388;2023-01-24T13:53:00;5.20;99.90
6865;DHT22;3471;49.678;8.388;2023-01-24T13:58:19;5.20;99.90
6865;DHT22;3471;49.678;8.388;2023-01-24T14:00:51;5.10;99.90
6865;DHT22;3471;49.678;8.388;2023-01-24T14:03:27;5.10;99.90
6865;DHT22;3471;49.678;8.388;2023-01-24T14:06:03;5.10;99.90
6865;DHT22;3471;49.678;8.388;2023-01-24T14:13:43;5.00;99.90
6865;DHT22;3471;49.678;8.388;2023-01-24T14:19:04;5.00;99.90
6865;DHT22;3471;49.678;8.388;2023-01-24T14:21:49;5.00;99.90
6865;DHT22;3471;49.678;8.388;2023-01-24T14:24:25;4.90;99.90
6865;DHT22;3471;49.678;8.388;2023-01-24T14:26:54;4.90;99.90
6865;DHT22;3471;49.678;8.388;2023-01-24T14:29:28;4.90;99.90
6865;DHT22;3471;49.678;8.388;2023-01-24T14:32:00;5.00;99.90
6865;DHT22;3471;49.678;8.388;2023-01-24T14:34:33;5.00;99.90
6865;DHT22;3471;49.678;8.388;2023-01-24T14:37:12;5.10;99.90
6865;DHT22;3471;49.678;8.388;2023-01-24T14:39:38;5.10;99.90
6865;DHT22;3471;49.678;8.388;2023-01-24T14:42:06;5.10;99.90
6865;DHT22;3471;49.678;8.388;2023-01-24T14:44:42;5.10;99.90
6865;DHT22;3471;49.678;8.388;2023-01-24T14:47:28;5.10;99.90
6865;DHT22;3471;49.678;8.388;2023-01-24T14:49:56;5.10;99.90
6865;DHT22;3471;49.678;8.388;2023-01-24T14:52:27;5.00;99.90
6865;DHT22;3471;49.678;8.388;2023-01-24T14:59:46;4.90;99.90
6865;DHT22;3471;49.678;8.388;2023-01-24T15:02:22;4.90;99.90
6865;DHT22;3471;49.678;8.388;2023-01-24T15:04:48;4.90;99.90
6865;DHT22;3471;49.678;8.388;2023-01-24T15:07:16;4.90;99.90
6865;DHT22;3471;49.678;8.388;2023-01-24T15:09:42;4.90;99.90
6865;DHT22;3471;49.678;8.388;2023-01-24T15:12:29;4.80;99.90
6865;DHT22;3471;49.678;8.388;2023-01-24T15:14:57;4.80;99.90
6865;DHT22;3471;49.678;8.388;2023-01-24T15:17:27;4.80;99.90
6865;DHT22;3471;49.678;8.388;2023-01-24T15:19:58;4.70;99.90
6865;DHT22;3471;49.678;8.388;2023-01-24T15:22:26;4.60;99.90
6865;DHT22;3471;49.678;8.388;2023-01-24T15:24:57;4.60;99.90
6865;DHT22;3471;49.678;8.388;2023-01-24T15:27:31;4.60;99.90
6865;DHT22;3471;49.678;8.388;2023-01-24T15:30:20;4.60;99.90
6865;DHT22;3471;49.678;8.388;2023-01-24T15:32:50;4.60;99.90
6865;DHT22;3471;49.678;8.388;2023-01-24T15:35:35;4.60;99.90
6865;DHT22;3471;49.678;8.388;2023-01-24T15:38:11;4.60;99.90
6865;DHT22;3471;49.678;8.388;2023-01-24T15:46:18;4.70;99.90
6865;DHT22;3471;49.678;8.388;2023-01-24T15:52:11;4.70;99.90
6865;DHT22;3471;49.678;8.388;2023-01-24T15:54:43;4.70;99.90
6865;DHT22;3471;49.678;8.388;2023-01-24T15:59:58;4.80;99.90
6865;DHT22;3471;49.678;8.388;2023-01-24T16:02:24;4.80;99.90
6865;DHT22;3471;49.678;8.388;2023-01-24T16:04:50;4.80;99.90
6865;DHT22;3471;49.678;8.388;2023-01-24T16:07:16;4.80;99.90
6865;DHT22;3471;49.678;8.388;2023-01-24T16:09:48;4.80;99.90
6865;DHT22;3471;49.678;8.388;2023-01-24T16:12:16;4.80;99.90
6865;DHT22;3471;49.678;8.388;2023-01-24T16:14:47;4.80;99.90
6865;DHT22;3471;49.678;8.388;2023-01-24T16:17:13;4.80;99.90
6865;DHT22;3471;49.678;8.388;2023-01-24T16:19:40;4.80;99.90
6865;DHT22;3471;49.678;8.388;2023-01-24T16:22:06;4.80;99.90
6865;DHT22;3471;49.678;8.388;2023-01-24T16:24:31;4.80;99.90
6865;DHT22;3471;49.678;8.388;2023-01-24T16:26:57;4.80;99.90
6865;DHT22;3471;49.678;8.388;2023-01-24T16:29:25;4.80;99.90
6865;DHT22;3471;49.678;8.388;2023-01-24T16:31:52;4.80;99.90
6865;DHT22;3471;49.678;8.388;2023-01-24T16:34:17;4.80;99.90
6865;DHT22;3471;49.678;8.388;2023-01-24T16:36:44;4.80;99.90
6865;DHT22;3471;49.678;8.388;2023-01-24T16:39:14;4.80;99.90
6865;DHT22;3471;49.678;8.388;2023-01-24T16:41:42;4.80;99.90
6865;DHT22;3471;49.678;8.388;2023-01-24T16:44:08;4.80;99.90
6865;DHT22;3471;49.678;8.388;2023-01-24T16:46:33;4.80;99.90
6865;DHT22;3471;49.678;8.388;2023-01-24T16:48:59;4.80;99.90
6865;DHT22;3471;49.678;8.388;2023-01-24T16:51:25;4.80;99.90
6865;DHT22;3471;49.678;8.388;2023-01-24T16:53:55;4.80;99.90
6865;DHT22;3471;49.678;8.388;2023-01-24T16:56:21;4.80;99.90
6865;DHT22;3471;49.678;8.388;2023-01-24T16:58:47;4.80;99.90
6865;DHT22;3471;49.678;8.388;2023-01-24T17:01:13;4.70;99.90
6865;DHT22;3471;49.678;8.388;2023-01-24T17:03:39;4.70;99.90
6865;DHT22;3471;49.678;8.388;2023-01-24T17:06:10;4.70;99.90
6865;DHT22;3471;49.678;8.388;2023-01-24T17:08:36;4.70;99.90
6865;DHT22;3471;49.678;8.388;2023-01-24T17:11:08;4.70;99.90
6865;DHT22;3471;49.678;8.388;2023-01-24T17:13:34;4.70;99.90
6865;DHT22;3471;49.678;8.388;2023-01-24T17:16:08;4.60;99.90
6865;DHT22;3471;49.678;8.388;2023-01-24T17:18:35;4.70;99.90
6865;DHT22;3471;49.678;8.388;2023-01-24T17:21:09;4.70;99.90
6865;DHT22;3471;49.678;8.388;2023-01-24T17:23:36;4.70;99.90
6865;DHT22;3471;49.678;8.388;2023-01-24T17:26:14;4.70;99.90
6865;DHT22;3471;49.678;8.388;2023-01-24T17:28:41;4.70;99.90
6865;DHT22;3471;49.678;8.388;2023-01-24T17:31:09;4.70;99.90
6865;DHT22;3471;49.678;8.388;2023-01-24T17:33:35;4.70;99.90
6865;DHT22;3471;49.678;8.388;2023-01-24T17:36:01;4.70;99.90
6865;DHT22;3471;49.678;8.388;2023-01-24T17:38:27;4.70;99.90
6865;DHT22;3471;49.678;8.388;2023-01-24T17:40:52;4.70;99.90
6865;DHT22;3471;49.678;8.388;2023-01-24T17:43:18;4.70;99.90
6865;DHT22;3471;49.678;8.388;2023-01-24T17:45:55;4.70;99.90
6865;DHT22;3471;49.678;8.388;2023-01-24T17:48:21;4.70;99.90
6865;DHT22;3471;49.678;8.388;2023-01-24T17:50:47;4.70;99.90
6865;DHT22;3471;49.678;8.388;2023-01-24T17:53:17;4.70;99.90
6865;DHT22;3471;49.678;8.388;2023-01-24T17:55:43;4.70;99.90
6865;DHT22;3471;49.678;8.388;2023-01-24T17:58:08;4.70;99.90
6865;DHT22;3471;49.678;8.388;2023-01-24T18:00:34;4.70;99.90
6865;DHT22;3471;49.678;8.388;2023-01-24T18:03:00;4.70;99.90
6865;DHT22;3471;49.678;8.388;2023-01-24T18:05:25;4.70;99.90
6865;DHT22;3471;49.678;8.388;2023-01-24T18:07:51;4.70;99.90
6865;DHT22;3471;49.678;8.388;2023-01-24T18:10:17;4.70;99.90
6865;DHT22;3471;49.678;8.388;2023-01-24T18:12:43;4.70;99.90
6865;DHT22;3471;49.678;8.388;2023-01-24T18:15:09;4.70;99.90
6865;DHT22;3471;49.678;8.388;2023-01-24T18:17:35;4.60;99.90
6865;DHT22;3471;49.678;8.388;2023-01-24T18:20:01;4.60;99.90
6865;DHT22;3471;49.678;8.388;2023-01-24T18:22:27;4.70;99.90
6865;DHT22;3471;49.678;8.388;2023-01-24T18:24:53;4.70;99.90
6865;DHT22;3471;49.678;8.388;2023-01-24T18:27:18;4.70;99.90
6865;DHT22;3471;49.678;8.388;2023-01-24T18:29:45;4.70;99.90
6865;DHT22;3471;49.678;8.388;2023-01-24T18:32:11;4.70;99.90
6865;DHT22;3471;49.678;8.388;2023-01-24T18:34:37;4.70;99.90
6865;DHT22;3471;49.678;8.388;2023-01-24T18:37:02;4.60;99.90